sensor_id;sensor_type;location;lat;lon;timestamp;temperature;humidity
18974;DHT22;9621;48.690;9.466;2023-11-21T00:07:43;6.20;99.90
18974;DHT22;9621;48.690;9.466;2023-11-21T00:10:11;6.20;99.90
18974;DHT22;9621;48.690;9.466;2023-11-21T00:12:39;6.20;99.90
18974;DHT22;9621;48.690;9.466;2023-11-21T00:15:08;6.20;99.90
18974;DHT22;9621;48.690;9.466;2023-11-21T00:17:36;6.20;99.90
18974;DHT22;9621;48.690;9.466;2023-11-21T00:20:04;6.20;99.90
18974;DHT22;9621;48.690;9.466;2023-11-21T00:22:32;6.10;99.90
18974;DHT22;9621;48.690;9.466;2023-11-21T00:25:00;6.10;99.90
18974;DHT22;9621;48.690;9.466;2023-11-21T00:27:29;6.20;99.90
18974;DHT22;9621;48.690;9.466;2023-11-21T00:29:56;6.20;99.90
18974;DHT22;9621;48.690;9.466;2023-11-21T00:32:23;6.20;99.90
18974;DHT22;9621;48.690;9.466;2023-11-21T00:34:49;6.20;99.90
18974;DHT22;9621;48.690;9.466;2023-11-21T00:37:16;6.20;99.90
18974;DHT22;9621;48.690;9.466;2023-11-21T00:39:43;6.20;99.90
18974;DHT22;9621;48.690;9.466;2023-11-21T00:42:12;6.20;99.90
18974;DHT22;9621;48.690;9.466;2023-11-21T00:44:39;6.20;99.90
18974;DHT22;9621;48.690;9.466;2023-11-21T00:47:06;6.20;99.90
18974;DHT22;9621;48.690;9.466;2023-11-21T00:49:33;6.20;99.90
18974;DHT22;9621;48.690;9.466;2023-11-21T00:52:00;6.20;99.90
18974;DHT22;9621;48.690;9.466;2023-11-21T00:54:28;6.20;99.90
18974;DHT22;9621;48.690;9.466;2023-11-21T00:56:55;6.20;99.90
18974;DHT22;9621;48.690;9.466;2023-11-21T00:59:23;6.20;99.90
18974;DHT22;9621;48.690;9.466;2023-11-21T01:01:50;6.20;99.90
18974;DHT22;9621;48.690;9.466;2023-11-21T01:04:17;6.30;99.90
18974;DHT22;9621;48.690;9.466;2023-11-21T01:06:44;6.20;99.90
18974;DHT22;9621;48.690;9.466;2023-11-21T01:09:11;6.30;99.90
18974;DHT22;9621;48.690;9.466;2023-11-21T01:11:38;6.30;99.90
18974;DHT22;9621;48.690;9.466;2023-11-21T01:14:05;6.30;99.90
18974;DHT22;9621;48.690;9.466;2023-11-21T01:16:33;6.30;99.90
18974;DHT22;9621;48.690;9.466;2023-11-21T01:19:01;6.30;99.90
18974;DHT22;9621;48.690;9.466;2023-11-21T01:21:28;6.30;99.90
18974;DHT22;9621;48.690;9.466;2023-11-21T01:23:56;6.40;99.90
18974;DHT22;9621;48.690;9.466;2023-11-21T01:26:23;6.50;99.90
18974;DHT22;9621;48.690;9.466;2023-11-21T01:28:50;6.40;99.90
18974;DHT22;9621;48.690;9.466;2023-11-21T01:31:17;6.30;99.90
18974;DHT22;9621;48.690;9.466;2023-11-21T01:33:46;6.40;99.90
18974;DHT22;9621;48.690;9.466;2023-11-21T01:36:14;6.40;99.90
18974;DHT22;9621;48.690;9.466;2023-11-21T01:38:41;6.30;99.90
18974;DHT22;9621;48.690;9.466;2023-11-21T01:41:07;6.40;99.90
18974;DHT22;9621;48.690;9.466;2023-11-21T01:43:36;6.30;99.90
18974;DHT22;9621;48.690;9.466;2023-11-21T01:46:04;6.30;99.90
18974;DHT22;9621;48.690;9.466;2023-11-21T01:48:32;6.30;99.90
18974;DHT22;9621;48.690;9.466;2023-11-21T01:51:00;6.40;99.90
18974;DHT22;9621;48.690;9.466;2023-11-21T01:53:28;6.40;99.90
18974;DHT22;9621;48.690;9.466;2023-11-21T01:55:55;6.40;99.90
18974;DHT22;9621;48.690;9.466;2023-11-21T01:58:23;6.40;99.90
18974;DHT22;9621;48.690;9.466;2023-11-21T02:00:50;6.40;99.90
18974;DHT22;9621;48.690;9.466;2023-11-21T02:03:18;6.40;99.90
18974;DHT22;9621;48.690;9.466;2023-11-21T02:05:45;6.40;99.90
18974;DHT22;9621;48.690;9.466;2023-11-21T02:08:13;6.40;99.90
18974;DHT22;9621;48.690;9.466;2023-11-21T02:10:40;6.40;99.90
18974;DHT22;9621;48.690;9.466;2023-11-21T02:13:07;6.40;99.90
18974;DHT22;9621;48.690;9.466;2023-11-21T02:15:34;6.40;99.90
18974;DHT22;9621;48.690;9.466;2023-11-21T02:18:01;6.40;99.90
18974;DHT22;9621;48.690;9.466;2023-11-21T02:20:28;6.40;99.90
18974;DHT22;9621;48.690;9.466;2023-11-21T02:22:57;6.40;99.90
18974;DHT22;9621;48.690;9.466;2023-11-21T02:25:25;6.50;99.90
18974;DHT22;9621;48.690;9.466;2023-11-21T02:27:53;6.50;99.90
18974;DHT22;9621;48.690;9.466;2023-11-21T02:30:20;6.60;99.90
18974;DHT22;9621;48.690;9.466;2023-11-21T02:32:48;6.50;99.90
18974;DHT22;9621;48.690;9.466;2023-11-21T02:35:15;6.50;99.90
18974;DHT22;9621;48.690;9.466;2023-11-21T02:37:42;6.50;99.90
18974;DHT22;9621;48.690;9.466;2023-11-21T02:40:11;6.50;99.90
18974;DHT22;9621;48.690;9.466;2023-11-21T02:42:42;6.50;99.90
18974;DHT22;9621;48.690;9.466;2023-11-21T02:45:10;6.50;99.90
18974;DHT22;9621;48.690;9.466;2023-11-21T02:47:38;6.50;99.90
18974;DHT22;9621;48.690;9.466;2023-11-21T02:50:06;6.50;99.90
18974;DHT22;9621;48.690;9.466;2023-11-21T02:52:34;6.50;99.90
18974;DHT22;9621;48.690;9.466;2023-11-21T02:55:01;6.50;99.90
18974;DHT22;9621;48.690;9.466;2023-11-21T02:57:29;6.50;99.90
18974;DHT22;9621;48.690;9.466;2023-11-21T02:59:55;6.50;99.90
18974;DHT22;9621;48.690;9.466;2023-11-21T03:02:22;6.60;99.90
18974;DHT22;9621;48.690;9.466;2023-11-21T03:04:49;6.60;99.90
18974;DHT22;9621;48.690;9.466;2023-11-21T03:07:16;6.50;99.90
18974;DHT22;9621;48.690;9.466;2023-11-21T03:09:44;6.50;99.90
18974;DHT22;9621;48.690;9.466;2023-11-21T03:12:11;6.40;99.90
18974;DHT22;9621;48.690;9.466;2023-11-21T03:14:40;6.50;99.90
18974;DHT22;9621;48.690;9.466;2023-11-21T03:17:07;6.50;99.90
18974;DHT22;9621;48.690;9.466;2023-11-21T03:19:34;6.40;99.90
18974;DHT22;9621;48.690;9.466;2023-11-21T03:22:01;6.40;99.90
18974;DHT22;9621;48.690;9.466;2023-11-21T03:24:28;6.40;99.90
18974;DHT22;9621;48.690;9.466;2023-11-21T03:26:54;6.50;99.90
18974;DHT22;9621;48.690;9.466;2023-11-21T03:29:22;6.50;99.90
18974;DHT22;9621;48.690;9.466;2023-11-21T03:31:50;6.50;99.90
18974;DHT22;9621;48.690;9.466;2023-11-21T03:34:23;6.50;99.90
18974;DHT22;9621;48.690;9.466;2023-11-21T03:36:51;6.50;99.90
18974;DHT22;9621;48.690;9.466;2023-11-21T03:39:19;6.50;99.90
18974;DHT22;9621;48.690;9.466;2023-11-21T03:41:46;6.50;99.90
18974;DHT22;9621;48.690;9.466;2023-11-21T03:44:13;6.50;99.90
18974;DHT22;9621;48.690;9.466;2023-11-21T03:46:40;6.50;99.90
18974;DHT22;9621;48.690;9.466;2023-11-21T03:49:08;6.50;99.90
18974;DHT22;9621;48.690;9.466;2023-11-21T03:51:36;6.50;99.90
18974;DHT22;9621;48.690;9.466;2023-11-21T03:54:03;6.50;99.90
18974;DHT22;9621;48.690;9.466;2023-11-21T03:56:30;6.50;99.90
18974;DHT22;9621;48.690;9.466;2023-11-21T03:58:57;6.50;99.90
18974;DHT22;9621;48.690;9.466;2023-11-21T04:01:24;6.50;99.90
18974;DHT22;9621;48.690;9.466;2023-11-21T04:03:51;6.50;99.90
18974;DHT22;9621;48.690;9.466;2023-11-21T04:06:20;6.50;99.90
18974;DHT22;9621;48.690;9.466;2023-11-21T04:08:47;6.50;99.90
18974;DHT22;9621;48.690;9.466;2023-11-21T04:11:14;6.60;99.90
18974;DHT22;9621;48.690;9.466;2023-11-21T04:13:41;6.60;99.90
18974;DHT22;9621;48.690;9.466;2023-11-21T04:16:09;6.50;99.90
18974;DHT22;9621;48.690;9.466;2023-11-21T04:18:36;6.50;99.90
18974;DHT22;9621;48.690;9.466;2023-11-21T04:21:04;6.50;99.90
18974;DHT22;9621;48.690;9.466;2023-11-21T04:23:33;6.50;99.90
18974;DHT22;9621;48.690;9.466;2023-11-21T04:26:00;6.50;99.90
18974;DHT22;9621;48.690;9.466;2023-11-21T04:28:28;6.50;99.90
18974;DHT22;9621;48.690;9.466;2023-11-21T04:30:56;6.50;99.90
18974;DHT22;9621;48.690;9.466;2023-11-21T04:33:23;6.60;99.90
18974;DHT22;9621;48.690;9.466;2023-11-21T04:35:51;6.50;99.90
18974;DHT22;9621;48.690;9.466;2023-11-21T04:38:18;6.50;99.90
18974;DHT22;9621;48.690;9.466;2023-11-21T04:40:46;6.50;99.90
18974;DHT22;9621;48.690;9.466;2023-11-21T04:43:13;6.60;99.90
18974;DHT22;9621;48.690;9.466;2023-11-21T04:45:40;6.50;99.90
18974;DHT22;9621;48.690;9.466;2023-11-21T04:48:07;6.50;99.90
18974;DHT22;9621;48.690;9.466;2023-11-21T04:50:34;6.50;99.90
18974;DHT22;9621;48.690;9.466;2023-11-21T04:53:00;6.60;99.90
18974;DHT22;9621;48.690;9.466;2023-11-21T04:55:28;6.50;99.90
18974;DHT22;9621;48.690;9.466;2023-11-21T04:57:56;6.50;99.90
18974;DHT22;9621;48.690;9.466;2023-11-21T05:00:23;6.50;99.90
18974;DHT22;9621;48.690;9.466;2023-11-21T05:02:50;6.50;99.90
18974;DHT22;9621;48.690;9.466;2023-11-21T05:05:18;6.60;99.90
18974;DHT22;9621;48.690;9.466;2023-11-21T05:07:45;6.60;99.90
18974;DHT22;9621;48.690;9.466;2023-11-21T05:10:11;6.50;99.90
18974;DHT22;9621;48.690;9.466;2023-11-21T05:12:40;6.50;99.90
18974;DHT22;9621;48.690;9.466;2023-11-21T05:15:13;6.50;99.90
18974;DHT22;9621;48.690;9.466;2023-11-21T05:17:41;6.50;99.90
18974;DHT22;9621;48.690;9.466;2023-11-21T05:20:10;6.40;99.90
18974;DHT22;9621;48.690;9.466;2023-11-21T05:22:38;6.40;99.90
18974;DHT22;9621;48.690;9.466;2023-11-21T05:25:06;6.40;99.90
18974;DHT22;9621;48.690;9.466;2023-11-21T05:27:34;6.40;99.90
18974;DHT22;9621;48.690;9.466;2023-11-21T05:30:01;6.40;99.90
18974;DHT22;9621;48.690;9.466;2023-11-21T05:32:32;6.40;99.90
18974;DHT22;9621;48.690;9.466;2023-11-21T05:34:59;6.40;99.90
18974;DHT22;9621;48.690;9.466;2023-11-21T05:37:26;6.40;99.90
18974;DHT22;9621;48.690;9.466;2023-11-21T05:39:53;6.30;99.90
18974;DHT22;9621;48.690;9.466;2023-11-21T05:42:22;6.30;99.90
18974;DHT22;9621;48.690;9.466;2023-11-21T05:44:49;6.30;99.90
18974;DHT22;9621;48.690;9.466;2023-11-21T05:47:16;6.40;99.90
18974;DHT22;9621;48.690;9.466;2023-11-21T05:49:45;6.40;99.90
18974;DHT22;9621;48.690;9.466;2023-11-21T05:52:15;6.30;99.90
18974;DHT22;9621;48.690;9.466;2023-11-21T05:54:43;6.30;99.90
18974;DHT22;9621;48.690;9.466;2023-11-21T05:57:13;6.30;99.90
18974;DHT22;9621;48.690;9.466;2023-11-21T05:59:40;6.30;99.90
18974;DHT22;9621;48.690;9.466;2023-11-21T06:02:07;6.30;99.90
18974;DHT22;9621;48.690;9.466;2023-11-21T06:04:34;6.40;99.90
18974;DHT22;9621;48.690;9.466;2023-11-21T06:07:03;6.30;99.90
18974;DHT22;9621;48.690;9.466;2023-11-21T06:09:30;6.30;99.90
18974;DHT22;9621;48.690;9.466;2023-11-21T06:11:57;6.30;99.90
18974;DHT22;9621;48.690;9.466;2023-11-21T06:14:24;6.30;99.90
18974;DHT22;9621;48.690;9.466;2023-11-21T06:16:51;6.20;99.90
18974;DHT22;9621;48.690;9.466;2023-11-21T06:19:18;6.20;99.90
18974;DHT22;9621;48.690;9.466;2023-11-21T06:21:46;6.20;99.90
18974;DHT22;9621;48.690;9.466;2023-11-21T06:24:14;6.20;99.90
18974;DHT22;9621;48.690;9.466;2023-11-21T06:26:48;6.20;99.90
18974;DHT22;9621;48.690;9.466;2023-11-21T06:29:15;6.20;99.90
18974;DHT22;9621;48.690;9.466;2023-11-21T06:31:42;6.20;99.90
18974;DHT22;9621;48.690;9.466;2023-11-21T06:34:09;6.20;99.90
18974;DHT22;9621;48.690;9.466;2023-11-21T06:36:36;6.10;99.90
18974;DHT22;9621;48.690;9.466;2023-11-21T06:39:03;6.20;99.90
18974;DHT22;9621;48.690;9.466;2023-11-21T06:41:33;6.10;99.90
18974;DHT22;9621;48.690;9.466;2023-11-21T06:44:00;6.10;99.90
18974;DHT22;9621;48.690;9.466;2023-11-21T06:46:28;6.10;99.90
18974;DHT22;9621;48.690;9.466;2023-11-21T06:48:55;6.10;99.90
18974;DHT22;9621;48.690;9.466;2023-11-21T06:51:22;6.10;99.90
18974;DHT22;9621;48.690;9.466;2023-11-21T06:53:49;6.10;99.90
18974;DHT22;9621;48.690;9.466;2023-11-21T06:56:16;6.20;99.90
18974;DHT22;9621;48.690;9.466;2023-11-21T06:58:45;6.10;99.90
18974;DHT22;9621;48.690;9.466;2023-11-21T07:01:12;6.10;99.90
18974;DHT22;9621;48.690;9.466;2023-11-21T07:03:40;6.20;99.90
18974;DHT22;9621;48.690;9.466;2023-11-21T07:06:08;6.20;99.90
18974;DHT22;9621;48.690;9.466;2023-11-21T07:08:35;6.30;99.90
18974;DHT22;9621;48.690;9.466;2023-11-21T07:11:02;6.30;99.90
18974;DHT22;9621;48.690;9.466;2023-11-21T07:13:29;6.30;99.90
18974;DHT22;9621;48.690;9.466;2023-11-21T07:15:59;6.30;99.90
18974;DHT22;9621;48.690;9.466;2023-11-21T07:18:26;6.40;99.90
18974;DHT22;9621;48.690;9.466;2023-11-21T07:20:52;6.50;99.90
18974;DHT22;9621;48.690;9.466;2023-11-21T07:23:19;6.50;99.90
18974;DHT22;9621;48.690;9.466;2023-11-21T07:25:48;6.50;99.90
18974;DHT22;9621;48.690;9.466;2023-11-21T07:28:15;6.60;99.90
18974;DHT22;9621;48.690;9.466;2023-11-21T07:30:42;6.60;99.90
18974;DHT22;9621;48.690;9.466;2023-11-21T07:33:11;6.60;99.90
18974;DHT22;9621;48.690;9.466;2023-11-21T07:35:38;6.70;99.90
18974;DHT22;9621;48.690;9.466;2023-11-21T07:38:05;6.70;99.90
18974;DHT22;9621;48.690;9.466;2023-11-21T07:40:31;6.70;99.90
18974;DHT22;9621;48.690;9.466;2023-11-21T07:42:58;6.80;99.90
18974;DHT22;9621;48.690;9.466;2023-11-21T07:45:25;6.90;99.90
18974;DHT22;9621;48.690;9.466;2023-11-21T07:47:53;6.90;99.90
18974;DHT22;9621;48.690;9.466;2023-11-21T07:50:21;7.00;99.90
18974;DHT22;9621;48.690;9.466;2023-11-21T07:52:48;7.00;99.90
18974;DHT22;9621;48.690;9.466;2023-11-21T07:55:16;7.20;99.90
18974;DHT22;9621;48.690;9.466;2023-11-21T07:57:43;7.20;99.90
18974;DHT22;9621;48.690;9.466;2023-11-21T08:00:11;7.30;99.90
18974;DHT22;9621;48.690;9.466;2023-11-21T08:02:39;7.40;99.90
18974;DHT22;9621;48.690;9.466;2023-11-21T08:05:08;7.60;99.90
18974;DHT22;9621;48.690;9.466;2023-11-21T08:07:36;7.70;99.90
18974;DHT22;9621;48.690;9.466;2023-11-21T08:10:04;7.80;99.90
18974;DHT22;9621;48.690;9.466;2023-11-21T08:12:31;7.90;99.90
18974;DHT22;9621;48.690;9.466;2023-11-21T08:14:58;8.00;99.90
18974;DHT22;9621;48.690;9.466;2023-11-21T08:17:25;8.00;99.90
18974;DHT22;9621;48.690;9.466;2023-11-21T08:19:52;8.10;99.90
18974;DHT22;9621;48.690;9.466;2023-11-21T08:22:18;8.20;99.90
18974;DHT22;9621;48.690;9.466;2023-11-21T08:24:47;8.20;99.90
18974;DHT22;9621;48.690;9.466;2023-11-21T08:27:14;8.20;99.90
18974;DHT22;9621;48.690;9.466;2023-11-21T08:29:42;8.20;99.90
18974;DHT22;9621;48.690;9.466;2023-11-21T08:32:09;8.30;99.90
18974;DHT22;9621;48.690;9.466;2023-11-21T08:34:36;8.30;99.90
18974;DHT22;9621;48.690;9.466;2023-11-21T08:37:08;8.40;99.90
18974;DHT22;9621;48.690;9.466;2023-11-21T08:39:36;8.40;99.90
18974;DHT22;9621;48.690;9.466;2023-11-21T08:42:06;8.40;99.90
18974;DHT22;9621;48.690;9.466;2023-11-21T08:44:33;8.50;99.90
18974;DHT22;9621;48.690;9.466;2023-11-21T08:47:00;8.60;99.90
18974;DHT22;9621;48.690;9.466;2023-11-21T08:49:27;8.60;99.90
18974;DHT22;9621;48.690;9.466;2023-11-21T08:51:55;8.70;99.90
18974;DHT22;9621;48.690;9.466;2023-11-21T08:54:23;8.70;99.90
18974;DHT22;9621;48.690;9.466;2023-11-21T08:56:51;8.80;99.90
18974;DHT22;9621;48.690;9.466;2023-11-21T08:59:19;8.80;99.90
18974;DHT22;9621;48.690;9.466;2023-11-21T09:01:46;8.90;99.90
18974;DHT22;9621;48.690;9.466;2023-11-21T09:04:13;8.90;99.90
18974;DHT22;9621;48.690;9.466;2023-11-21T09:06:40;9.10;99.90
18974;DHT22;9621;48.690;9.466;2023-11-21T09:09:07;9.00;99.90
18974;DHT22;9621;48.690;9.466;2023-11-21T09:11:35;9.10;99.90
18974;DHT22;9621;48.690;9.466;2023-11-21T09:14:02;9.20;99.90
18974;DHT22;9621;48.690;9.466;2023-11-21T09:16:31;9.20;99.90
18974;DHT22;9621;48.690;9.466;2023-11-21T09:18:58;9.20;99.90
18974;DHT22;9621;48.690;9.466;2023-11-21T09:21:25;9.10;99.90
18974;DHT22;9621;48.690;9.466;2023-11-21T09:23:53;9.10;99.90
18974;DHT22;9621;48.690;9.466;2023-11-21T09:26:20;9.10;99.90
18974;DHT22;9621;48.690;9.466;2023-11-21T09:28:47;9.10;99.90
18974;DHT22;9621;48.690;9.466;2023-11-21T09:31:14;9.10;99.90
18974;DHT22;9621;48.690;9.466;2023-11-21T09:33:44;9.00;99.90
18974;DHT22;9621;48.690;9.466;2023-11-21T09:36:12;9.10;99.90
18974;DHT22;9621;48.690;9.466;2023-11-21T09:38:40;9.00;99.90
18974;DHT22;9621;48.690;9.466;2023-11-21T09:41:14;8.90;99.90
18974;DHT22;9621;48.690;9.466;2023-11-21T09:43:44;8.90;99.90
18974;DHT22;9621;48.690;9.466;2023-11-21T09:46:13;8.90;99.90
18974;DHT22;9621;48.690;9.466;2023-11-21T09:48:48;8.90;99.90
18974;DHT22;9621;48.690;9.466;2023-11-21T09:51:19;8.90;99.90
18974;DHT22;9621;48.690;9.466;2023-11-21T09:53:50;9.00;99.90
18974;DHT22;9621;48.690;9.466;2023-11-21T09:56:18;8.90;99.90
18974;DHT22;9621;48.690;9.466;2023-11-21T09:58:52;9.00;99.90
18974;DHT22;9621;48.690;9.466;2023-11-21T10:01:20;9.00;99.90
18974;DHT22;9621;48.690;9.466;2023-11-21T10:03:50;9.10;99.90
18974;DHT22;9621;48.690;9.466;2023-11-21T10:06:18;9.20;99.90
18974;DHT22;9621;48.690;9.466;2023-11-21T10:08:46;9.30;99.90
18974;DHT22;9621;48.690;9.466;2023-11-21T10:11:14;9.40;99.90
18974;DHT22;9621;48.690;9.466;2023-11-21T10:13:42;9.60;99.90
18974;DHT22;9621;48.690;9.466;2023-11-21T10:16:13;9.70;99.90
18974;DHT22;9621;48.690;9.466;2023-11-21T10:18:43;9.90;99.90
18974;DHT22;9621;48.690;9.466;2023-11-21T10:21:13;10.40;99.90
18974;DHT22;9621;48.690;9.466;2023-11-21T10:23:40;11.00;99.90
18974;DHT22;9621;48.690;9.466;2023-11-21T10:26:09;11.60;99.90
18974;DHT22;9621;48.690;9.466;2023-11-21T10:28:41;12.10;99.90
18974;DHT22;9621;48.690;9.466;2023-11-21T10:31:08;12.30;99.90
18974;DHT22;9621;48.690;9.466;2023-11-21T10:33:35;12.50;99.90
18974;DHT22;9621;48.690;9.466;2023-11-21T10:36:03;12.50;99.90
18974;DHT22;9621;48.690;9.466;2023-11-21T10:38:35;12.40;99.90
18974;DHT22;9621;48.690;9.466;2023-11-21T10:41:11;12.40;99.90
18974;DHT22;9621;48.690;9.466;2023-11-21T10:43:41;12.50;99.90
18974;DHT22;9621;48.690;9.466;2023-11-21T10:46:08;12.60;99.90
18974;DHT22;9621;48.690;9.466;2023-11-21T10:48:34;12.80;99.90
18974;DHT22;9621;48.690;9.466;2023-11-21T10:51:07;12.90;99.90
18974;DHT22;9621;48.690;9.466;2023-11-21T10:53:39;13.00;99.90
18974;DHT22;9621;48.690;9.466;2023-11-21T10:56:09;13.10;99.90
18974;DHT22;9621;48.690;9.466;2023-11-21T10:58:43;13.30;99.90
18974;DHT22;9621;48.690;9.466;2023-11-21T11:01:11;13.30;99.90
18974;DHT22;9621;48.690;9.466;2023-11-21T11:03:40;13.40;99.90
18974;DHT22;9621;48.690;9.466;2023-11-21T11:06:08;13.30;99.90
18974;DHT22;9621;48.690;9.466;2023-11-21T11:08:38;13.30;99.90
18974;DHT22;9621;48.690;9.466;2023-11-21T11:11:09;13.20;99.90
18974;DHT22;9621;48.690;9.466;2023-11-21T11:13:37;13.00;99.90
18974;DHT22;9621;48.690;9.466;2023-11-21T11:16:05;12.90;99.90
18974;DHT22;9621;48.690;9.466;2023-11-21T11:18:36;12.70;99.90
18974;DHT22;9621;48.690;9.466;2023-11-21T11:21:10;12.60;99.90
18974;DHT22;9621;48.690;9.466;2023-11-21T11:23:51;12.40;99.90
18974;DHT22;9621;48.690;9.466;2023-11-21T11:26:29;12.20;99.90
18974;DHT22;9621;48.690;9.466;2023-11-21T11:29:07;12.10;99.90
18974;DHT22;9621;48.690;9.466;2023-11-21T11:31:45;12.00;99.90
18974;DHT22;9621;48.690;9.466;2023-11-21T11:34:23;11.80;99.90
18974;DHT22;9621;48.690;9.466;2023-11-21T11:36:56;11.70;99.90
18974;DHT22;9621;48.690;9.466;2023-11-21T11:39:36;11.60;99.90
18974;DHT22;9621;48.690;9.466;2023-11-21T11:42:05;11.50;99.90
18974;DHT22;9621;48.690;9.466;2023-11-21T11:44:49;11.50;99.90
18974;DHT22;9621;48.690;9.466;2023-11-21T11:47:20;11.50;99.90
18974;DHT22;9621;48.690;9.466;2023-11-21T11:50:02;11.40;99.90
18974;DHT22;9621;48.690;9.466;2023-11-21T11:52:33;11.40;99.90
18974;DHT22;9621;48.690;9.466;2023-11-21T11:55:02;11.30;99.90
18974;DHT22;9621;48.690;9.466;2023-11-21T11:57:30;11.30;99.90
18974;DHT22;9621;48.690;9.466;2023-11-21T12:00:15;11.20;99.90
18974;DHT22;9621;48.690;9.466;2023-11-21T12:02:52;11.10;99.90
18974;DHT22;9621;48.690;9.466;2023-11-21T12:05:19;11.00;99.90
18974;DHT22;9621;48.690;9.466;2023-11-21T12:07:49;10.90;99.90
18974;DHT22;9621;48.690;9.466;2023-11-21T12:10:19;10.80;99.90
18974;DHT22;9621;48.690;9.466;2023-11-21T12:12:48;10.70;99.90
18974;DHT22;9621;48.690;9.466;2023-11-21T12:15:15;10.60;99.90
18974;DHT22;9621;48.690;9.466;2023-11-21T12:17:43;10.50;99.90
18974;DHT22;9621;48.690;9.466;2023-11-21T12:20:11;10.40;99.90
18974;DHT22;9621;48.690;9.466;2023-11-21T12:22:47;10.40;99.90
18974;DHT22;9621;48.690;9.466;2023-11-21T12:25:15;10.30;99.90
18974;DHT22;9621;48.690;9.466;2023-11-21T12:27:46;10.20;99.90
18974;DHT22;9621;48.690;9.466;2023-11-21T12:30:16;10.20;99.90
18974;DHT22;9621;48.690;9.466;2023-11-21T12:32:44;10.10;99.90
18974;DHT22;9621;48.690;9.466;2023-11-21T12:35:12;10.00;99.90
18974;DHT22;9621;48.690;9.466;2023-11-21T12:37:40;9.90;99.90
18974;DHT22;9621;48.690;9.466;2023-11-21T12:40:09;9.80;99.90
18974;DHT22;9621;48.690;9.466;2023-11-21T12:42:39;9.70;99.90
18974;DHT22;9621;48.690;9.466;2023-11-21T12:45:19;9.60;99.90
18974;DHT22;9621;48.690;9.466;2023-11-21T12:47:47;9.50;99.90
18974;DHT22;9621;48.690;9.466;2023-11-21T12:50:15;9.50;99.90
18974;DHT22;9621;48.690;9.466;2023-11-21T12:52:42;9.40;99.90
18974;DHT22;9621;48.690;9.466;2023-11-21T12:55:16;9.40;99.90
18974;DHT22;9621;48.690;9.466;2023-11-21T12:57:44;9.30;99.90
18974;DHT22;9621;48.690;9.466;2023-11-21T13:00:15;9.30;99.90
18974;DHT22;9621;48.690;9.466;2023-11-21T13:02:53;9.30;99.90
18974;DHT22;9621;48.690;9.466;2023-11-21T13:05:26;9.30;99.90
18974;DHT22;9621;48.690;9.466;2023-11-21T13:07:54;9.40;99.90
18974;DHT22;9621;48.690;9.466;2023-11-21T13:10:23;9.50;99.90
18974;DHT22;9621;48.690;9.466;2023-11-21T13:12:52;9.60;99.90
18974;DHT22;9621;48.690;9.466;2023-11-21T13:15:22;9.70;99.90
18974;DHT22;9621;48.690;9.466;2023-11-21T13:17:49;9.80;99.90
18974;DHT22;9621;48.690;9.466;2023-11-21T13:20:16;9.90;99.90
18974;DHT22;9621;48.690;9.466;2023-11-21T13:22:47;10.10;99.90
18974;DHT22;9621;48.690;9.466;2023-11-21T13:25:15;10.20;99.90
18974;DHT22;9621;48.690;9.466;2023-11-21T13:27:44;10.20;99.90
18974;DHT22;9621;48.690;9.466;2023-11-21T13:30:12;10.20;99.90
18974;DHT22;9621;48.690;9.466;2023-11-21T13:32:43;10.20;99.90
18974;DHT22;9621;48.690;9.466;2023-11-21T13:35:11;10.20;99.90
18974;DHT22;9621;48.690;9.466;2023-11-21T13:37:48;10.30;99.90
18974;DHT22;9621;48.690;9.466;2023-11-21T13:40:20;10.20;99.90
18974;DHT22;9621;48.690;9.466;2023-11-21T13:42:51;10.20;99.90
18974;DHT22;9621;48.690;9.466;2023-11-21T13:45:21;10.20;99.90
18974;DHT22;9621;48.690;9.466;2023-11-21T13:47:50;10.10;99.90
18974;DHT22;9621;48.690;9.466;2023-11-21T13:50:23;10.20;99.90
18974;DHT22;9621;48.690;9.466;2023-11-21T13:52:54;10.10;99.90
18974;DHT22;9621;48.690;9.466;2023-11-21T13:55:21;10.10;99.90
18974;DHT22;9621;48.690;9.466;2023-11-21T13:57:51;10.10;99.90
18974;DHT22;9621;48.690;9.466;2023-11-21T14:00:18;10.10;99.90
18974;DHT22;9621;48.690;9.466;2023-11-21T14:03:04;10.00;99.90
18974;DHT22;9621;48.690;9.466;2023-11-21T14:05:36;10.00;99.90
18974;DHT22;9621;48.690;9.466;2023-11-21T14:08:05;9.90;99.90
18974;DHT22;9621;48.690;9.466;2023-11-21T14:10:33;9.90;99.90
18974;DHT22;9621;48.690;9.466;2023-11-21T14:13:05;9.90;99.90
18974;DHT22;9621;48.690;9.466;2023-11-21T14:15:32;9.80;99.90
18974;DHT22;9621;48.690;9.466;2023-11-21T14:18:05;9.80;99.90
18974;DHT22;9621;48.690;9.466;2023-11-21T14:20:35;9.80;99.90
18974;DHT22;9621;48.690;9.466;2023-11-21T14:23:03;9.70;99.90
18974;DHT22;9621;48.690;9.466;2023-11-21T14:25:30;9.60;99.90
18974;DHT22;9621;48.690;9.466;2023-11-21T14:27:58;9.60;99.90
18974;DHT22;9621;48.690;9.466;2023-11-21T14:30:25;9.70;99.90
18974;DHT22;9621;48.690;9.466;2023-11-21T14:32:53;9.40;99.90
18974;DHT22;9621;48.690;9.466;2023-11-21T14:35:21;9.30;99.90
18974;DHT22;9621;48.690;9.466;2023-11-21T14:37:48;9.10;99.90
18974;DHT22;9621;48.690;9.466;2023-11-21T14:40:17;8.90;99.90
18974;DHT22;9621;48.690;9.466;2023-11-21T14:42:48;8.70;99.90
18974;DHT22;9621;48.690;9.466;2023-11-21T14:45:18;8.70;99.90
18974;DHT22;9621;48.690;9.466;2023-11-21T14:47:45;8.40;99.90
18974;DHT22;9621;48.690;9.466;2023-11-21T14:50:21;8.30;99.90
18974;DHT22;9621;48.690;9.466;2023-11-21T14:53:17;8.20;99.90
18974;DHT22;9621;48.690;9.466;2023-11-21T14:56:05;8.10;99.90
18974;DHT22;9621;48.690;9.466;2023-11-21T14:58:33;8.00;99.90
18974;DHT22;9621;48.690;9.466;2023-11-21T15:01:00;8.00;99.90
18974;DHT22;9621;48.690;9.466;2023-11-21T15:03:27;8.00;99.90
18974;DHT22;9621;48.690;9.466;2023-11-21T15:06:10;7.90;99.90
18974;DHT22;9621;48.690;9.466;2023-11-21T15:08:53;7.90;99.90
18974;DHT22;9621;48.690;9.466;2023-11-21T15:11:42;7.90;99.90
18974;DHT22;9621;48.690;9.466;2023-11-21T15:14:09;7.90;99.90
18974;DHT22;9621;48.690;9.466;2023-11-21T15:16:38;7.90;99.90
18974;DHT22;9621;48.690;9.466;2023-11-21T15:19:08;7.90;99.90
18974;DHT22;9621;48.690;9.466;2023-11-21T15:21:39;7.80;99.90
18974;DHT22;9621;48.690;9.466;2023-11-21T15:24:06;7.80;99.90
18974;DHT22;9621;48.690;9.466;2023-11-21T15:26:33;7.80;99.90
18974;DHT22;9621;48.690;9.466;2023-11-21T15:29:00;7.80;99.90
18974;DHT22;9621;48.690;9.466;2023-11-21T15:31:27;7.80;99.90
18974;DHT22;9621;48.690;9.466;2023-11-21T15:33:54;7.70;99.90
18974;DHT22;9621;48.690;9.466;2023-11-21T15:36:25;7.70;99.90
18974;DHT22;9621;48.690;9.466;2023-11-21T15:38:53;7.70;99.90
18974;DHT22;9621;48.690;9.466;2023-11-21T15:41:20;7.70;99.90
18974;DHT22;9621;48.690;9.466;2023-11-21T15:43:47;7.70;99.90
18974;DHT22;9621;48.690;9.466;2023-11-21T15:46:16;7.70;99.90
18974;DHT22;9621;48.690;9.466;2023-11-21T15:48:43;7.60;99.90
18974;DHT22;9621;48.690;9.466;2023-11-21T15:51:16;7.60;99.90
18974;DHT22;9621;48.690;9.466;2023-11-21T15:53:43;7.70;99.90
18974;DHT22;9621;48.690;9.466;2023-11-21T15:56:11;7.60;99.90
18974;DHT22;9621;48.690;9.466;2023-11-21T15:58:39;7.60;99.90
18974;DHT22;9621;48.690;9.466;2023-11-21T16:01:08;7.60;99.90
18974;DHT22;9621;48.690;9.466;2023-11-21T16:03:38;7.60;99.90
18974;DHT22;9621;48.690;9.466;2023-11-21T16:06:05;7.60;99.90
18974;DHT22;9621;48.690;9.466;2023-11-21T16:08:35;7.60;99.90
18974;DHT22;9621;48.690;9.466;2023-11-21T16:11:04;7.50;99.90
18974;DHT22;9621;48.690;9.466;2023-11-21T16:13:32;7.60;99.90
18974;DHT22;9621;48.690;9.466;2023-11-21T16:16:00;7.60;99.90